Time;durP1;ratioP1;P1;durP2;ratioP2;P2;SDS_P1;SDS_P2;PMS_P1;PMS_P2;Temp;Humidity;BMP_temperature;BMP_pressure;BME280_temperature;BME280_humidity;BME280_pressure;Samples;Min_cycle;Max_cycle;Signal;HPM_P1;HPM_P2
2021/01/22 00:00:34;;;;;;;2.20;2.07;;;4.60;99.90;;;;;;5062818;28;20238;-61
2021/01/22 00:03:56;;;;;;;2.00;1.90;;;4.60;99.90;;;;;;5065176;28;20302;-60
2021/01/22 00:07:15;;;;;;;2.47;2.37;;;4.50;99.90;;;;;;5066282;28;20283;-61
2021/01/22 00:10:41;;;;;;;2.43;2.33;;;4.50;99.90;;;;;;5055687;28;20323;-60
2021/01/22 00:14:00;;;;;;;2.70;2.60;;;4.50;99.90;;;;;;5068428;28;20234;-60
2021/01/22 00:17:17;;;;;;;2.63;2.53;;;4.50;99.90;;;;;;5067504;28;20637;-61
2021/01/22 00:20:39;;;;;;;2.73;2.47;;;4.40;99.90;;;;;;5056245;28;20373;-60
2021/01/22 00:23:57;;;;;;;3.10;2.57;;;4.40;99.90;;;;;;5063073;28;20215;-61
2021/01/22 00:27:15;;;;;;;2.47;2.37;;;4.30;99.90;;;;;;5069024;28;20239;-61
2021/01/22 00:30:34;;;;;;;2.50;2.40;;;4.30;99.90;;;;;;5068319;28;20234;-61
2021/01/22 00:33:53;;;;;;;2.70;2.60;;;4.30;99.90;;;;;;5066077;28;20245;-61
2021/01/22 00:37:10;;;;;;;2.67;2.47;;;4.30;99.90;;;;;;5065607;28;20271;-61
2021/01/22 00:40:33;;;;;;;2.53;2.43;;;4.20;99.90;;;;;;5061128;28;20227;-61
2021/01/22 00:43:51;;;;;;;2.70;2.60;;;4.20;99.90;;;;;;5069047;28;20219;-61
2021/01/22 00:47:15;;;;;;;2.40;2.00;;;4.20;99.90;;;;;;5065545;28;20732;-61
2021/01/22 00:50:33;;;;;;;2.00;1.93;;;4.20;99.90;;;;;;5068022;28;20262;-61
2021/01/22 00:53:51;;;;;;;2.10;2.00;;;4.20;99.90;;;;;;5068437;28;20243;-61
2021/01/22 00:57:09;;;;;;;2.50;2.30;;;4.20;99.90;;;;;;5069076;28;20315;-61
2021/01/22 01:00:33;;;;;;;2.90;2.10;;;4.20;99.90;;;;;;5065535;28;20280;-61
2021/01/22 01:03:58;;;;;;;3.63;2.10;;;4.20;99.90;;;;;;5065996;28;20346;-61
2021/01/22 01:07:16;;;;;;;3.03;1.90;;;4.20;99.90;;;;;;5069756;28;20310;-61
2021/01/22 01:10:33;;;;;;;1.37;1.37;;;4.20;99.90;;;;;;5069861;28;20255;-61
2021/01/22 01:13:52;;;;;;;1.60;1.50;;;4.20;99.90;;;;;;5060203;28;20361;-61
2021/01/22 01:17:11;;;;;;;1.60;1.50;;;4.20;99.90;;;;;;5068028;28;20243;-61
2021/01/22 01:20:31;;;;;;;1.40;1.40;;;4.20;99.90;;;;;;5063096;28;20331;-61
2021/01/22 01:23:49;;;;;;;1.50;1.50;;;4.10;99.90;;;;;;5060712;28;20365;-61
2021/01/22 01:27:13;;;;;;;1.63;1.53;;;4.10;99.90;;;;;;5064617;28;20219;-61
2021/01/22 01:30:34;;;;;;;1.80;1.80;;;4.10;99.90;;;;;;5066420;28;20807;-61
2021/01/22 01:33:53;;;;;;;2.07;1.97;;;4.10;99.90;;;;;;5068791;28;20314;-61
2021/01/22 01:37:14;;;;;;;2.10;2.00;;;4.00;99.90;;;;;;5058878;28;20380;-61
2021/01/22 01:40:32;;;;;;;2.60;1.90;;;4.00;99.90;;;;;;5062234;28;20224;-61
2021/01/22 01:44:15;;;;;;;5.90;2.23;;;4.00;99.90;;;;;;5069582;28;20575;-61
2021/01/22 01:47:39;;;;;;;3.73;2.27;;;4.00;99.90;;;;;;5066628;28;20259;-61
2021/01/22 01:50:58;;;;;;;2.90;2.10;;;4.00;99.90;;;;;;5063395;28;20223;-61
2021/01/22 01:54:22;;;;;;;2.43;2.10;;;4.00;99.90;;;;;;5059191;28;20252;-61
2021/01/22 01:57:43;;;;;;;3.60;2.57;;;3.90;99.90;;;;;;5067581;28;20222;-61
2021/01/22 02:01:01;;;;;;;3.27;2.77;;;3.90;99.90;;;;;;5066780;28;20325;-61
2021/01/22 02:04:25;;;;;;;5.40;2.50;;;3.90;99.90;;;;;;5060017;28;20370;-61
2021/01/22 02:07:46;;;;;;;3.83;2.70;;;3.90;99.90;;;;;;5060979;28;20241;-61
2021/01/22 02:11:06;;;;;;;4.53;3.13;;;3.80;99.90;;;;;;5069829;28;20645;-61
2021/01/22 02:14:25;;;;;;;2.20;2.10;;;3.80;99.90;;;;;;5070638;28;20273;-61
2021/01/22 02:17:44;;;;;;;3.23;2.43;;;3.80;99.90;;;;;;5070082;28;20219;-61
2021/01/22 02:21:15;;;;;;;3.00;2.77;;;3.70;99.90;;;;;;5055197;28;20240;-60
2021/01/22 02:24:34;;;;;;;2.83;2.63;;;3.70;99.90;;;;;;5066923;28;20672;-61
2021/01/22 02:28:06;;;;;;;5.87;2.90;;;3.70;99.90;;;;;;5066111;28;20222;-61
2021/01/22 02:31:30;;;;;;;5.20;2.73;;;3.70;99.90;;;;;;5064584;28;20258;-61
2021/01/22 02:34:53;;;;;;;3.10;2.77;;;3.60;99.90;;;;;;5064936;28;20223;-61
2021/01/22 02:38:12;;;;;;;6.13;3.10;;;3.70;99.90;;;;;;5068669;28;20625;-61
2021/01/22 02:41:31;;;;;;;3.50;3.07;;;3.90;99.90;;;;;;5068332;28;20219;-61
2021/01/22 02:44:55;;;;;;;4.60;3.10;;;4.00;99.90;;;;;;5067100;28;20289;-61
2021/01/22 02:48:19;;;;;;;6.77;3.00;;;3.90;99.90;;;;;;5061244;28;20709;-61
2021/01/22 02:51:40;;;;;;;4.63;3.07;;;3.90;99.90;;;;;;5068208;28;20261;-62
2021/01/22 02:54:59;;;;;;;4.97;3.10;;;3.80;99.90;;;;;;5069712;28;20239;-61
2021/01/22 02:58:29;;;;;;;3.20;2.80;;;3.80;99.90;;;;;;5068496;28;20701;-61
2021/01/22 03:02:04;;;;;;;7.07;2.70;;;3.70;99.90;;;;;;5059513;28;20222;-61
2021/01/22 03:05:31;;;;;;;2.63;2.43;;;3.70;99.90;;;;;;5060463;28;20227;-61
2021/01/22 03:08:55;;;;;;;4.53;2.80;;;3.70;99.90;;;;;;5052233;28;20342;-62
2021/01/22 03:12:15;;;;;;;4.93;2.93;;;3.60;99.90;;;;;;5029213;28;20219;-61
2021/01/22 03:15:36;;;;;;;7.67;3.17;;;3.60;99.90;;;;;;5059791;28;20220;-61
2021/01/22 03:19:02;;;;;;;3.33;3.03;;;3.60;99.90;;;;;;5062981;28;20227;-61
2021/01/22 03:22:23;;;;;;;3.40;3.17;;;3.70;99.90;;;;;;5065888;28;20288;-61
2021/01/22 03:25:41;;;;;;;3.47;3.17;;;3.70;99.90;;;;;;5068847;28;20223;-61
2021/01/22 03:29:00;;;;;;;4.30;3.03;;;3.60;99.90;;;;;;5073679;28;20306;-61
2021/01/22 03:32:18;;;;;;;4.83;3.43;;;3.60;99.90;;;;;;5059180;28;20227;-61
2021/01/22 03:35:43;;;;;;;6.03;3.20;;;3.60;99.90;;;;;;5068237;28;20219;-61
2021/01/22 03:39:04;;;;;;;4.13;2.70;;;3.60;99.90;;;;;;5061888;28;20262;-61
2021/01/22 03:42:22;;;;;;;5.67;2.90;;;3.60;99.90;;;;;;5071651;28;20329;-61
2021/01/22 03:45:40;;;;;;;5.50;3.20;;;3.50;99.90;;;;;;5059495;28;20257;-61
2021/01/22 03:48:59;;;;;;;6.30;3.33;;;3.40;99.90;;;;;;5069206;28;20775;-61
2021/01/22 03:52:25;;;;;;;3.67;2.60;;;3.40;99.90;;;;;;5055117;28;20236;-61
2021/01/22 03:55:45;;;;;;;7.40;3.00;;;3.50;99.90;;;;;;5068440;28;20248;-61
2021/01/22 04:02:56;;;;;;;3.50;2.70;;;3.50;99.90;;;;;;5060513;28;20303;-61
2021/01/22 04:06:15;;;;;;;4.00;2.60;;;3.50;99.90;;;;;;5068035;28;20277;-61
2021/01/22 04:09:33;;;;;;;3.23;2.70;;;3.50;99.90;;;;;;5054406;28;20223;-61
2021/01/22 04:12:55;;;;;;;2.80;2.60;;;3.50;99.90;;;;;;5062858;28;20243;-61
2021/01/22 04:16:14;;;;;;;3.43;2.63;;;3.60;99.90;;;;;;5055861;28;20476;-61
2021/01/22 04:19:31;;;;;;;3.23;2.10;;;3.50;99.90;;;;;;5069616;28;20285;-61
2021/01/22 04:22:50;;;;;;;5.43;2.53;;;3.50;99.90;;;;;;5068062;28;20231;-61
2021/01/22 04:26:10;;;;;;;3.17;2.33;;;3.50;99.90;;;;;;5068171;28;20227;-61
2021/01/22 04:29:29;;;;;;;6.37;2.90;;;3.50;99.90;;;;;;5063180;28;20224;-62
2021/01/22 04:32:46;;;;;;;2.43;2.20;;;3.60;99.90;;;;;;5069995;28;20227;-61
2021/01/22 04:36:05;;;;;;;8.10;2.57;;;3.60;99.90;;;;;;5070849;28;20750;-61
2021/01/22 04:39:22;;;;;;;6.77;2.47;;;3.50;99.90;;;;;;5063092;28;20219;-61
2021/01/22 04:42:43;;;;;;;4.33;2.63;;;3.50;99.90;;;;;;5069471;28;20574;-61
2021/01/22 04:46:05;;;;;;;2.63;2.20;;;3.50;99.90;;;;;;5060870;28;20220;-62
2021/01/22 04:49:23;;;;;;;4.23;2.70;;;3.40;99.90;;;;;;5064845;28;20345;-61
2021/01/22 04:52:46;;;;;;;3.00;2.70;;;3.40;99.90;;;;;;5064530;28;20219;-62
2021/01/22 04:56:12;;;;;;;6.23;2.77;;;3.40;99.90;;;;;;5062285;28;20978;-62
2021/01/22 04:59:42;;;;;;;3.90;2.97;;;3.30;99.90;;;;;;5071906;28;20632;-61
2021/01/22 05:03:02;;;;;;;3.60;2.80;;;3.40;99.90;;;;;;5070073;28;20733;-62
2021/01/22 05:06:24;;;;;;;5.63;3.00;;;3.30;99.90;;;;;;5067888;28;20740;-61
2021/01/22 05:09:48;;;;;;;4.03;3.33;;;3.30;99.90;;;;;;5070633;28;20219;-61
2021/01/22 05:13:15;;;;;;;4.43;3.00;;;3.40;99.90;;;;;;5066771;28;20312;-61
2021/01/22 05:16:34;;;;;;;3.87;3.03;;;3.30;99.90;;;;;;5057439;28;20338;-61
2021/01/22 05:20:06;;;;;;;8.57;3.33;;;3.30;99.90;;;;;;5063081;28;20261;-61
2021/01/22 05:23:38;;;;;;;8.80;4.03;;;3.40;99.90;;;;;;5063733;28;20258;-61
2021/01/22 05:27:04;;;;;;;7.73;3.40;;;3.40;99.90;;;;;;5071256;28;20230;-61
2021/01/22 05:30:23;;;;;;;11.00;3.40;;;3.40;99.90;;;;;;5068459;28;20302;-61
2021/01/22 05:34:04;;;;;;;10.00;4.03;;;3.40;99.90;;;;;;5063949;28;20326;-61
2021/01/22 05:37:24;;;;;;;6.43;3.73;;;3.40;99.90;;;;;;5066502;28;20255;-61
2021/01/22 05:40:52;;;;;;;5.70;3.77;;;3.50;99.90;;;;;;5062143;28;20731;-61
2021/01/22 05:44:20;;;;;;;7.47;3.87;;;3.40;99.90;;;;;;5061898;28;20701;-62
2021/01/22 05:47:38;;;;;;;8.43;4.10;;;3.30;99.90;;;;;;5059674;28;20223;-61
2021/01/22 05:51:01;;;;;;;7.27;3.50;;;3.40;99.90;;;;;;5066249;28;20223;-61
2021/01/22 05:54:37;;;;;;;9.13;4.23;;;3.30;99.90;;;;;;5061002;28;20300;-62
2021/01/22 05:58:01;;;;;;;6.77;4.30;;;3.30;99.90;;;;;;5061573;28;20218;-62
2021/01/22 06:01:28;;;;;;;6.60;4.43;;;3.40;99.90;;;;;;5061603;28;20227;-62
2021/01/22 06:05:07;;;;;;;8.93;4.03;;;3.40;99.90;;;;;;5066521;28;20982;-61
2021/01/22 06:08:30;;;;;;;9.13;4.47;;;3.30;99.90;;;;;;5063466;28;20227;-61
2021/01/22 06:11:53;;;;;;;8.33;4.30;;;3.30;99.90;;;;;;5067741;28;20226;-61
2021/01/22 06:15:19;;;;;;;8.00;4.03;;;3.20;99.90;;;;;;5067558;28;20341;-62
2021/01/22 06:18:38;;;;;;;10.30;4.00;;;3.20;99.90;;;;;;5060839;28;20375;-62
2021/01/22 06:22:04;;;;;;;6.07;4.10;;;3.20;99.90;;;;;;5061392;28;20247;-62
2021/01/22 06:25:23;;;;;;;7.43;4.00;;;3.20;99.90;;;;;;5071394;28;20697;-62
2021/01/22 06:28:51;;;;;;;6.93;4.23;;;3.20;99.90;;;;;;5057920;28;20300;-62
2021/01/22 06:32:17;;;;;;;13.10;4.63;;;3.20;99.90;;;;;;5056231;28;20629;-61
2021/01/22 06:35:36;;;;;;;6.23;4.23;;;3.20;99.90;;;;;;5062156;28;20250;-62
2021/01/22 06:38:58;;;;;;;10.20;4.20;;;3.20;99.90;;;;;;5062568;28;20304;-61
2021/01/22 06:42:16;;;;;;;5.40;4.23;;;3.20;99.90;;;;;;5065146;28;20223;-61
2021/01/22 06:45:35;;;;;;;10.03;5.17;;;3.20;99.90;;;;;;5061456;28;20228;-62
2021/01/22 06:48:54;;;;;;;6.97;4.60;;;3.30;99.90;;;;;;5064889;28;20226;-61
2021/01/22 06:52:15;;;;;;;9.47;4.83;;;3.30;99.90;;;;;;5064714;28;20261;-62
2021/01/22 06:55:33;;;;;;;12.50;4.70;;;3.20;99.90;;;;;;5050290;28;20275;-62
2021/01/22 06:58:56;;;;;;;11.33;4.70;;;3.10;99.90;;;;;;5067028;28;20227;-62
2021/01/22 07:02:42;;;;;;;17.10;6.03;;;3.10;99.90;;;;;;5066113;28;20230;-62
2021/01/22 07:06:04;;;;;;;6.13;5.03;;;3.10;99.90;;;;;;5068106;28;21060;-62
2021/01/22 07:09:22;;;;;;;8.73;5.00;;;3.10;99.90;;;;;;5066552;28;20786;-61
2021/01/22 07:12:49;;;;;;;8.60;4.60;;;3.10;99.90;;;;;;5067541;28;20587;-62
2021/01/22 07:16:25;;;;;;;14.20;5.00;;;3.10;99.90;;;;;;5058835;28;20323;-61
2021/01/22 07:19:54;;;;;;;7.47;5.30;;;3.10;99.90;;;;;;5061215;28;20692;-62
2021/01/22 07:24:08;;;;;;;7.17;4.50;;;3.10;99.90;;;;;;5062989;28;20246;-62
2021/01/22 07:28:03;;;;;;;12.40;4.90;;;3.10;99.90;;;;;;4994689;28;20237;-61
2021/01/22 07:36:14;;;;;;;13.43;5.53;;;3.00;99.90;;;;;;4996950;28;20273;-61
2021/01/22 07:43:22;;;;;;;8.13;5.57;;;2.90;99.90;;;;;;5061618;28;20231;-62
2021/01/22 07:47:33;;;;;;;10.50;5.47;;;2.90;99.90;;;;;;5065502;28;20254;-61
2021/01/22 07:50:51;;;;;;;10.90;5.70;;;2.80;99.90;;;;;;5069895;28;20725;-62
2021/01/22 07:54:13;;;;;;;11.50;5.47;;;2.80;99.90;;;;;;5065172;28;20255;-62
2021/01/22 07:57:31;;;;;;;16.60;5.60;;;2.90;99.90;;;;;;5069186;28;21931;-62
2021/01/22 08:00:53;;;;;;;12.10;5.03;;;2.90;99.90;;;;;;5069257;28;20290;-64
2021/01/22 08:04:27;;;;;;;11.87;5.80;;;2.90;99.90;;;;;;5071726;28;20589;-61
2021/01/22 08:07:47;;;;;;;13.20;6.00;;;2.90;99.90;;;;;;5074124;28;20254;-62
2021/01/22 08:11:38;;;;;;;13.53;6.23;;;2.90;99.90;;;;;;5063918;28;20302;-61
2021/01/22 08:15:16;;;;;;;15.03;6.20;;;2.90;99.90;;;;;;5072083;28;20215;-61
2021/01/22 08:18:59;;;;;;;19.03;6.00;;;2.90;99.90;;;;;;5071939;28;20276;-61
2021/01/22 08:22:19;;;;;;;9.77;6.23;;;3.00;99.90;;;;;;5060522;28;20281;-61
2021/01/22 08:25:42;;;;;;;12.50;6.80;;;3.10;99.90;;;;;;5075031;28;20268;-62
2021/01/22 08:29:21;;;;;;;12.27;6.83;;;3.10;99.90;;;;;;5072034;28;20222;-62
2021/01/22 08:32:58;;;;;;;17.83;6.53;;;3.10;99.90;;;;;;5068891;28;20226;-61
2021/01/22 08:36:21;;;;;;;13.03;7.13;;;3.20;99.90;;;;;;5067386;28;20237;-62
2021/01/22 08:40:03;;;;;;;12.73;6.63;;;3.30;99.90;;;;;;5072869;28;20226;-62
2021/01/22 08:43:24;;;;;;;9.93;6.70;;;3.30;99.90;;;;;;5071098;28;20268;-62
2021/01/22 08:46:47;;;;;;;10.73;6.83;;;3.30;99.90;;;;;;5077875;28;20320;-62
2021/01/22 08:50:17;;;;;;;15.53;7.53;;;3.30;99.90;;;;;;5064947;28;20277;-62
2021/01/22 08:53:58;;;;;;;15.87;7.23;;;3.40;99.90;;;;;;5041979;28;20224;-61
2021/01/22 08:57:23;;;;;;;16.63;7.40;;;3.40;99.90;;;;;;5074649;28;20762;-62
2021/01/22 09:01:03;;;;;;;20.33;7.47;;;3.50;99.90;;;;;;5069749;28;20372;-62
2021/01/22 09:05:04;;;;;;;14.97;7.03;;;3.50;99.90;;;;;;5077726;28;20218;-62
2021/01/22 09:08:32;;;;;;;13.13;6.70;;;3.60;99.90;;;;;;5066685;28;20241;-61
2021/01/22 09:12:19;;;;;;;15.53;6.57;;;3.70;99.90;;;;;;5063302;28;20235;-62
2021/01/22 09:16:04;;;;;;;14.07;6.27;;;3.80;99.90;;;;;;5068182;28;20261;-61
2021/01/22 09:19:21;;;;;;;14.63;6.57;;;3.80;99.90;;;;;;5048065;28;20277;-62
2021/01/22 09:26:22;;;;;;;12.40;5.57;;;3.90;99.90;;;;;;5066236;28;20270;-62
2021/01/22 09:29:47;;;;;;;11.33;5.03;;;4.00;99.90;;;;;;5061133;28;20239;-62
2021/01/22 09:33:05;;;;;;;8.57;5.50;;;4.00;99.90;;;;;;5062533;28;20218;-62
2021/01/22 09:36:43;;;;;;;9.87;5.17;;;4.10;99.90;;;;;;5056433;28;20246;-62
2021/01/22 09:40:03;;;;;;;11.73;5.20;;;4.20;99.90;;;;;;5062171;28;20223;-62
2021/01/22 09:43:21;;;;;;;12.37;5.20;;;4.40;99.90;;;;;;5061310;28;20227;-62
2021/01/22 09:50:13;;;;;;;12.87;5.00;;;4.50;99.90;;;;;;5069327;28;20774;-62
2021/01/22 09:53:34;;;;;;;8.43;4.57;;;4.60;99.90;;;;;;5070534;28;20215;-62
2021/01/22 09:56:54;;;;;;;11.33;4.57;;;4.70;99.90;;;;;;5061993;28;20224;-62
2021/01/22 10:00:18;;;;;;;11.97;4.23;;;4.80;99.90;;;;;;5071519;28;20254;-62
2021/01/22 10:03:48;;;;;;;8.37;4.10;;;4.90;99.90;;;;;;5059973;28;20242;-62
2021/01/22 10:07:12;;;;;;;17.53;5.27;;;5.10;99.90;;;;;;5071972;28;20338;-62
2021/01/22 10:10:30;;;;;;;6.03;4.30;;;5.20;99.90;;;;;;5076497;28;20254;-62
2021/01/22 10:13:54;;;;;;;6.00;4.07;;;5.40;99.90;;;;;;5073028;28;20357;-62
2021/01/22 10:17:13;;;;;;;9.70;4.20;;;5.60;99.90;;;;;;5066699;28;20215;-62
2021/01/22 10:20:30;;;;;;;7.83;4.00;;;5.70;99.90;;;;;;5060323;28;20228;-62
2021/01/22 10:27:27;;;;;;;6.13;3.80;;;6.00;99.90;;;;;;5050500;28;20590;-62
2021/01/22 10:30:54;;;;;;;4.93;3.70;;;6.20;99.90;;;;;;5076962;28;20360;-62
2021/01/22 10:34:13;;;;;;;10.10;3.90;;;6.30;99.90;;;;;;5060918;28;20752;-62
2021/01/22 10:37:52;;;;;;;6.10;3.87;;;6.30;99.90;;;;;;5060510;28;20322;-62
2021/01/22 10:41:19;;;;;;;5.90;4.10;;;6.20;99.90;;;;;;5066327;28;20363;-62
2021/01/22 10:44:44;;;;;;;8.53;4.43;;;6.30;99.90;;;;;;5055630;28;20281;-62
2021/01/22 10:51:42;;;;;;;7.60;3.63;;;6.40;99.90;;;;;;5058398;28;20326;-62
2021/01/22 10:55:07;;;;;;;6.73;3.30;;;6.70;99.90;;;;;;5074103;28;20253;-62
2021/01/22 10:58:32;;;;;;;7.97;3.63;;;6.80;99.90;;;;;;5067430;28;20224;-62
2021/01/22 11:01:50;;;;;;;9.00;3.67;;;6.80;99.90;;;;;;5039973;28;20258;-62
2021/01/22 11:05:10;;;;;;;8.20;3.10;;;7.00;99.90;;;;;;5036504;28;20669;-62
2021/01/22 11:08:28;;;;;;;5.47;3.50;;;7.20;99.90;;;;;;5041596;28;20607;-62
2021/01/22 11:11:46;;;;;;;10.37;3.67;;;7.40;99.90;;;;;;5036881;28;20320;-64
2021/01/22 11:15:06;;;;;;;4.97;3.07;;;7.60;99.90;;;;;;5037172;28;20300;-63
2021/01/22 11:18:31;;;;;;;6.20;3.37;;;7.70;99.90;;;;;;5036352;28;20658;-63
2021/01/22 11:21:49;;;;;;;6.50;3.47;;;7.60;99.90;;;;;;5041176;28;20251;-63
2021/01/22 11:25:15;;;;;;;7.67;3.20;;;7.50;99.90;;;;;;5045296;28;20224;-63
2021/01/22 11:28:33;;;;;;;5.43;3.27;;;7.40;99.90;;;;;;5039517;28;20824;-63
2021/01/22 11:31:57;;;;;;;6.77;3.30;;;7.10;99.90;;;;;;5035538;28;20363;-63
2021/01/22 11:35:19;;;;;;;8.93;3.40;;;7.10;99.90;;;;;;5041316;28;20216;-64
2021/01/22 11:38:41;;;;;;;8.63;3.10;;;7.10;99.90;;;;;;5039614;28;20705;-63
2021/01/22 11:42:10;;;;;;;9.90;3.37;;;7.10;99.90;;;;;;5034791;28;20335;-63
2021/01/22 11:45:28;;;;;;;7.87;3.43;;;7.00;99.90;;;;;;5038472;28;20303;-63
2021/01/22 11:48:47;;;;;;;6.43;2.93;;;7.00;99.90;;;;;;5036493;28;20304;-63
2021/01/22 11:52:05;;;;;;;7.17;3.30;;;6.90;99.90;;;;;;5033851;28;20351;-63
2021/01/22 11:55:27;;;;;;;8.97;3.20;;;7.00;99.90;;;;;;5039079;28;20219;-63
2021/01/22 11:58:46;;;;;;;8.03;3.00;;;7.10;99.90;;;;;;5038897;28;20236;-63
2021/01/22 12:02:04;;;;;;;7.83;3.17;;;7.20;99.90;;;;;;5055953;28;20235;-63
2021/01/22 12:05:23;;;;;;;9.27;3.27;;;7.30;99.90;;;;;;5054566;28;20234;-63
2021/01/22 12:08:41;;;;;;;3.70;2.70;;;7.40;99.90;;;;;;5055962;28;20263;-63
2021/01/22 12:12:01;;;;;;;5.63;2.80;;;7.50;99.90;;;;;;5062801;28;20264;-63
2021/01/22 12:15:22;;;;;;;8.30;3.33;;;7.40;99.90;;;;;;5054116;28;20247;-62
2021/01/22 12:18:40;;;;;;;8.53;3.07;;;7.20;99.90;;;;;;5063545;28;20587;-62
2021/01/22 12:22:09;;;;;;;9.10;3.60;;;7.10;99.90;;;;;;5058627;28;20223;-63
2021/01/22 12:25:29;;;;;;;4.90;3.13;;;7.00;99.90;;;;;;5064842;28;20350;-63
2021/01/22 12:28:49;;;;;;;6.27;3.03;;;7.10;99.90;;;;;;5060384;28;20310;-62
2021/01/22 12:32:10;;;;;;;9.50;3.40;;;7.10;99.90;;;;;;5063111;28;20269;-63
2021/01/22 12:35:33;;;;;;;9.73;3.20;;;7.10;99.90;;;;;;5059460;28;20299;-62
2021/01/22 12:38:51;;;;;;;6.10;3.10;;;7.20;99.90;;;;;;5055340;28;20284;-62
2021/01/22 12:42:11;;;;;;;6.73;3.13;;;7.30;99.90;;;;;;5063312;28;20358;-63
2021/01/22 12:45:37;;;;;;;13.57;3.57;;;7.40;99.90;;;;;;5068363;28;20235;-62
2021/01/22 12:48:54;;;;;;;7.47;3.17;;;7.50;99.90;;;;;;5068956;28;20250;-62
2021/01/22 12:52:13;;;;;;;7.30;2.90;;;7.60;99.90;;;;;;5067932;28;20242;-63
2021/01/22 12:55:30;;;;;;;4.20;3.00;;;7.80;99.90;;;;;;5069066;28;20215;-63
2021/01/22 12:58:50;;;;;;;7.23;3.10;;;7.90;99.90;;;;;;5068727;28;20640;-62
2021/01/22 13:02:13;;;;;;;9.40;3.30;;;8.00;99.90;;;;;;5074423;28;20245;-63
2021/01/22 13:05:30;;;;;;;8.80;3.20;;;8.20;99.90;;;;;;5069539;28;20212;-63
2021/01/22 13:08:48;;;;;;;6.63;2.90;;;8.40;99.90;;;;;;5065276;28;20757;-64
2021/01/22 13:12:07;;;;;;;10.83;3.30;;;8.50;99.90;;;;;;5068838;28;20235;-62
2021/01/22 13:15:29;;;;;;;3.23;2.87;;;8.30;99.90;;;;;;5064439;28;20219;-62
2021/01/22 13:18:51;;;;;;;5.73;3.03;;;8.40;99.90;;;;;;5061073;28;20300;-61
2021/01/22 13:22:09;;;;;;;6.60;2.97;;;8.30;99.90;;;;;;5057165;28;20228;-63
2021/01/22 13:25:27;;;;;;;7.10;3.30;;;8.20;99.90;;;;;;5060434;28;20600;-64
2021/01/22 13:28:44;;;;;;;9.70;3.00;;;8.00;99.90;;;;;;5066839;28;20219;-64
2021/01/22 13:32:03;;;;;;;7.87;3.40;;;8.00;99.90;;;;;;5064719;28;20227;-64
2021/01/22 13:35:22;;;;;;;5.30;3.57;;;7.90;99.90;;;;;;5058753;28;20341;-63
2021/01/22 13:38:44;;;;;;;7.27;3.50;;;7.80;99.90;;;;;;5066164;28;20219;-64
2021/01/22 13:42:15;;;;;;;7.67;3.17;;;7.70;99.90;;;;;;5054320;28;20729;-64
2021/01/22 13:45:33;;;;;;;5.33;3.33;;;7.60;99.90;;;;;;5067190;28;20303;-64
2021/01/22 13:48:52;;;;;;;6.43;3.53;;;7.50;99.90;;;;;;5061933;28;20220;-63
2021/01/22 13:52:15;;;;;;;11.57;3.33;;;7.40;99.90;;;;;;5060179;28;20263;-64
2021/01/22 13:55:32;;;;;;;12.53;3.40;;;7.40;99.90;;;;;;5062166;28;20338;-64
2021/01/22 13:58:51;;;;;;;6.93;3.53;;;7.40;99.90;;;;;;5067033;28;20254;-64
2021/01/22 14:02:11;;;;;;;9.50;3.53;;;7.30;99.90;;;;;;5038797;28;20232;-64
2021/01/22 14:05:30;;;;;;;5.87;3.13;;;7.20;99.90;;;;;;5041291;28;20223;-64
2021/01/22 14:08:48;;;;;;;15.57;3.80;;;7.30;99.90;;;;;;5042090;28;20273;-64
2021/01/22 14:12:06;;;;;;;7.97;3.00;;;7.30;99.90;;;;;;5034844;28;20263;-64
2021/01/22 14:15:25;;;;;;;8.03;3.70;;;7.40;99.90;;;;;;5049239;28;21070;-64
2021/01/22 14:18:43;;;;;;;8.07;3.77;;;7.40;99.90;;;;;;5040402;28;20223;-64
2021/01/22 14:22:01;;;;;;;7.70;3.17;;;7.50;99.90;;;;;;5041598;28;20228;-64
2021/01/22 14:25:43;;;;;;;7.73;3.13;;;7.40;99.90;;;;;;5041851;28;20269;-64
2021/01/22 14:29:01;;;;;;;5.50;3.40;;;7.30;99.90;;;;;;5039342;28;20223;-64
2021/01/22 14:32:22;;;;;;;13.87;3.30;;;7.30;99.90;;;;;;5039375;28;20229;-64
2021/01/22 14:35:40;;;;;;;7.40;3.40;;;7.20;99.90;;;;;;5047278;28;20656;-64
2021/01/22 14:38:58;;;;;;;7.43;4.17;;;7.30;99.90;;;;;;5034324;28;20742;-64
2021/01/22 14:42:17;;;;;;;8.23;3.80;;;7.20;99.90;;;;;;5042491;28;20246;-64
2021/01/22 14:45:35;;;;;;;12.10;3.70;;;7.10;99.90;;;;;;5045132;28;20224;-62
2021/01/22 14:48:57;;;;;;;7.23;3.37;;;7.10;99.90;;;;;;5042244;28;20258;-64
2021/01/22 14:52:14;;;;;;;8.67;3.63;;;7.10;99.90;;;;;;5043487;28;20282;-62
2021/01/22 14:55:35;;;;;;;11.50;3.90;;;7.00;99.90;;;;;;5040056;28;20252;-62
2021/01/22 14:58:55;;;;;;;15.67;4.40;;;6.90;99.90;;;;;;5037277;28;20896;-62
2021/01/22 15:02:15;;;;;;;6.10;3.67;;;6.90;99.90;;;;;;5044000;28;20262;-62
2021/01/22 15:05:33;;;;;;;7.27;3.70;;;6.80;99.90;;;;;;5042405;28;20740;-62
2021/01/22 15:08:50;;;;;;;10.67;3.67;;;6.70;99.90;;;;;;5043014;28;20232;-62
2021/01/22 15:12:10;;;;;;;11.07;4.10;;;6.60;99.90;;;;;;5046104;28;20263;-62
2021/01/22 15:15:28;;;;;;;7.23;3.70;;;6.60;99.90;;;;;;5032876;28;20676;-62
2021/01/22 15:18:46;;;;;;;11.43;4.40;;;6.50;99.90;;;;;;5035049;28;20270;-62
2021/01/22 15:22:03;;;;;;;14.33;4.03;;;6.40;99.90;;;;;;5045779;28;20236;-64
2021/01/22 15:25:25;;;;;;;10.10;4.20;;;6.40;99.90;;;;;;5036947;28;20304;-64
2021/01/22 15:28:42;;;;;;;11.77;4.03;;;6.30;99.90;;;;;;5045836;28;20220;-62
2021/01/22 15:32:05;;;;;;;7.73;4.13;;;6.30;99.90;;;;;;5038434;28;20221;-62
2021/01/22 15:35:23;;;;;;;6.20;3.70;;;6.10;99.90;;;;;;5048123;28;20247;-65
2021/01/22 15:38:51;;;;;;;5.47;3.77;;;6.10;99.90;;;;;;5043582;28;20733;-62
2021/01/22 15:42:09;;;;;;;12.30;4.80;;;6.00;99.90;;;;;;5040768;28;20650;-62
2021/01/22 15:45:27;;;;;;;18.20;8.37;;;5.90;99.90;;;;;;5045621;28;20227;-62
2021/01/22 15:48:54;;;;;;;10.90;5.53;;;5.80;99.90;;;;;;5049663;28;20220;-62
2021/01/22 15:52:20;;;;;;;11.23;4.10;;;5.70;99.90;;;;;;5042185;28;20351;-61
2021/01/22 15:55:53;;;;;;;7.27;3.97;;;5.50;99.90;;;;;;5043668;28;20243;-64
2021/01/22 15:59:11;;;;;;;8.53;3.93;;;5.40;99.90;;;;;;5048640;28;20359;-64
2021/01/22 16:02:38;;;;;;;10.87;3.93;;;5.30;99.90;;;;;;5064511;28;20226;-62
2021/01/22 16:06:02;;;;;;;7.10;4.47;;;5.20;99.90;;;;;;5072904;28;20254;-64
2021/01/22 16:09:19;;;;;;;11.47;5.03;;;5.10;99.90;;;;;;5064349;28;20239;-64
2021/01/22 16:12:38;;;;;;;13.37;4.83;;;5.00;99.90;;;;;;5062461;28;20268;-62
2021/01/22 16:16:05;;;;;;;12.47;5.00;;;4.90;99.90;;;;;;5065868;28;20322;-64
2021/01/22 16:19:34;;;;;;;12.70;5.20;;;4.80;99.90;;;;;;5070831;28;20294;-61
2021/01/22 16:22:53;;;;;;;13.73;5.50;;;4.70;99.90;;;;;;5061838;28;20269;-64
2021/01/22 16:26:14;;;;;;;9.17;5.40;;;4.60;99.90;;;;;;5067710;28;20238;-64
2021/01/22 16:29:31;;;;;;;13.60;6.30;;;4.50;99.90;;;;;;5067416;28;20222;-64
2021/01/22 16:32:53;;;;;;;12.43;7.00;;;4.40;99.90;;;;;;5073863;28;20277;-64
2021/01/22 16:36:18;;;;;;;12.93;5.53;;;4.30;99.90;;;;;;5063351;28;20370;-64
2021/01/22 16:39:39;;;;;;;11.37;5.80;;;4.20;99.90;;;;;;5069602;28;20243;-62
2021/01/22 16:42:58;;;;;;;14.03;6.33;;;4.10;99.90;;;;;;5070606;28;20238;-64
2021/01/22 16:46:15;;;;;;;10.50;4.53;;;4.10;99.90;;;;;;5069682;28;20269;-64
2021/01/22 16:49:37;;;;;;;13.33;5.47;;;4.00;99.90;;;;;;5073516;28;20582;-64
2021/01/22 16:52:59;;;;;;;13.60;5.60;;;3.90;99.90;;;;;;5066559;28;20223;-65
2021/01/22 16:56:24;;;;;;;12.40;5.37;;;4.00;99.90;;;;;;5070846;28;20219;-64
2021/01/22 16:59:43;;;;;;;12.80;4.87;;;4.00;99.90;;;;;;5072547;28;20338;-64
2021/01/22 17:03:01;;;;;;;8.93;4.70;;;4.00;99.90;;;;;;5075441;28;20681;-64
2021/01/22 17:06:19;;;;;;;14.47;6.37;;;4.00;99.90;;;;;;5057530;28;20255;-64
2021/01/22 17:09:48;;;;;;;12.80;5.50;;;4.00;99.90;;;;;;5074243;28;20720;-64
2021/01/22 17:13:07;;;;;;;12.10;5.93;;;4.00;99.90;;;;;;5081590;28;20250;-64
2021/01/22 17:16:33;;;;;;;14.63;6.63;;;4.00;99.90;;;;;;5071364;28;20226;-64
2021/01/22 17:19:59;;;;;;;17.70;7.57;;;3.90;99.90;;;;;;5066863;28;20248;-64
2021/01/22 17:23:16;;;;;;;10.97;5.60;;;4.00;99.90;;;;;;5061461;28;20231;-64
2021/01/22 17:26:36;;;;;;;12.03;6.40;;;4.00;99.90;;;;;;5075219;28;20280;-64
2021/01/22 17:30:04;;;;;;;11.77;5.70;;;3.90;99.90;;;;;;5073441;28;20590;-64
2021/01/22 17:33:28;;;;;;;12.97;5.90;;;3.90;99.90;;;;;;5081210;28;20219;-64
2021/01/22 17:36:45;;;;;;;13.97;5.63;;;3.80;99.90;;;;;;5064968;28;20238;-64
2021/01/22 17:40:06;;;;;;;10.37;5.13;;;3.70;99.90;;;;;;5070814;28;20219;-64
2021/01/22 17:43:37;;;;;;;11.30;5.17;;;3.70;99.90;;;;;;5069873;28;20266;-62
2021/01/22 17:46:55;;;;;;;13.63;5.83;;;3.70;99.90;;;;;;5083092;28;20727;-64
2021/01/22 17:50:30;;;;;;;;;;;;;;;;;;;;;
2021/01/22 18:07:17;;;;;;;12.60;5.67;;;3.50;99.90;;;;;;5009344;28;20225;-64
2021/01/22 18:14:50;;;;;;;14.07;6.30;;;3.50;99.90;;;;;;4963658;28;20237;-64
2021/01/22 18:18:26;;;;;;;17.10;6.40;;;3.40;99.90;;;;;;4992490;28;20237;-62
2021/01/22 18:22:04;;;;;;;14.33;6.00;;;3.20;99.90;;;;;;5003104;28;20260;-62
2021/01/22 18:25:25;;;;;;;14.07;6.37;;;3.20;99.90;;;;;;4995902;28;20582;-62
2021/01/22 18:28:52;;;;;;;13.20;6.87;;;3.10;99.90;;;;;;5005480;28;20258;-62
2021/01/22 18:32:29;;;;;;;18.80;7.37;;;3.10;99.90;;;;;;5008160;28;20325;-62